Huvudsida
METAR-TAF:

METAR-TAF

Flygplatser :

Foz do Iguaçu / Cataratas International Airport

Foz do Iguaçu, Paraná, Brasilien

latitud: 25-31S, longitud: 054-35W, höjd: 180 m

Aktuellt väderrapport

Denna rapport gjordes för 54 minuter sedan, klockan 11:00 UTC
Vind 5 kt från syd/sydost
Temperatur 11°C
Fuktighet 94%
Tryck 1023 hPa
Sikt 10 km eller mer
Inga moln under 1 500 m eller inga cumulonimbus

METAR: SBFI 241100Z 15005KT CAVOK 11/10 Q1023

Tid: 08:54 (11:54 UTC)

Väderprognos

Denna rapport gjordes för 10 timmar och 24 minuter sedan, klockan 01:30 UTC
Prognos gäller från 24 kl. 06 UTC till 25 kl. 06 UTC
Vind 4 kt från syd/sydost
Sikt 10 km eller mer
Inga moln under 1 500 m eller inga cumulonimbus
Sannolikhet 30% :
Temporärt
från 24 kl. 08 UTC till 24 kl. 11 UTC
Sikt: 7000 m

TAF: SBFI 240130Z 2406/2506 16004KT CAVOK TN08/2409Z TX18/2418Z PROB30 TEMPO 2408/2411 7000 NSC RMK PEB

Aktuella väderrapporter och prognoser från 4000 flygplatser (METAR- och TAF-rapporter).

De tillgängliga stationerna syns som gula och röda prickar på kartan.

För musen över prickarna för att se namnen på stationerna.

Klicka sedan för att få väderrapporter och prognoser.

För att ändra kartan: Klicka på de gröna knapparna med ett svart kors på för att zooma in; den gröna knappen med ett streck på för att zooma ut; eller på de gröna pilarna för angränsande kartor.


METAR-TAF: